sensor_id;sensor_type;location;lat;lon;timestamp;pressure;altitude;pressure_sealevel;temperature;humidity
78223;BME280;67497;53.058;21.618;2024-01-30T00:01:07;102134.41;;;-0.59;87.00
78223;BME280;67497;53.058;21.618;2024-01-30T00:03:07;102126.69;;;-0.73;85.87
78223;BME280;67497;53.058;21.618;2024-01-30T00:05:08;102129.50;;;-0.77;86.72
78223;BME280;67497;53.058;21.618;2024-01-30T00:07:08;102114.59;;;-0.92;86.49
78223;BME280;67497;53.058;21.618;2024-01-30T00:09:09;102127.84;;;-0.83;86.81
78223;BME280;67497;53.058;21.618;2024-01-30T00:11:11;102116.44;;;-0.92;87.14
78223;BME280;67497;53.058;21.618;2024-01-30T00:13:11;102115.63;;;-0.97;86.59
78223;BME280;67497;53.058;21.618;2024-01-30T00:15:12;102119.13;;;-0.94;87.47
78223;BME280;67497;53.058;21.618;2024-01-30T00:17:12;102114.53;;;-0.89;87.78
78223;BME280;67497;53.058;21.618;2024-01-30T00:19:13;102128.75;;;-0.84;86.99
78223;BME280;67497;53.058;21.618;2024-01-30T00:21:13;102112.09;;;-0.98;86.28
78223;BME280;67497;53.058;21.618;2024-01-30T00:23:14;102127.00;;;-0.85;87.76
78223;BME280;67497;53.058;21.618;2024-01-30T00:25:14;102140.41;;;-0.83;87.18
78223;BME280;67497;53.058;21.618;2024-01-30T00:27:14;102131.44;;;-0.84;87.36
78223;BME280;67497;53.058;21.618;2024-01-30T00:29:15;102102.31;;;-1.02;86.73
78223;BME280;67497;53.058;21.618;2024-01-30T00:31:19;102104.16;;;-1.04;86.47
78223;BME280;67497;53.058;21.618;2024-01-30T00:33:19;102128.09;;;-0.93;87.82
78223;BME280;67497;53.058;21.618;2024-01-30T00:35:20;102122.84;;;-0.98;87.38
78223;BME280;67497;53.058;21.618;2024-01-30T00:37:22;102132.81;;;-1.03;88.21
78223;BME280;67497;53.058;21.618;2024-01-30T00:39:23;102127.28;;;-0.97;88.65
78223;BME280;67497;53.058;21.618;2024-01-30T00:41:23;102121.75;;;-0.91;88.12
78223;BME280;67497;53.058;21.618;2024-01-30T00:43:24;102117.28;;;-0.90;88.55
78223;BME280;67497;53.058;21.618;2024-01-30T00:45:25;102116.38;;;-0.91;87.64
78223;BME280;67497;53.058;21.618;2024-01-30T00:47:26;102109.31;;;-0.95;87.83
78223;BME280;67497;53.058;21.618;2024-01-30T00:49:26;102093.41;;;-1.04;88.43
78223;BME280;67497;53.058;21.618;2024-01-30T00:51:27;102076.50;;;-1.09;87.58
78223;BME280;67497;53.058;21.618;2024-01-30T00:53:29;102106.56;;;-0.93;88.85
78223;BME280;67497;53.058;21.618;2024-01-30T00:55:30;102110.09;;;-0.90;88.26
78223;BME280;67497;53.058;21.618;2024-01-30T00:57:30;102107.41;;;-0.90;88.54
78223;BME280;67497;53.058;21.618;2024-01-30T00:59:30;102104.50;;;-0.82;88.48
78223;BME280;67497;53.058;21.618;2024-01-30T01:01:31;102100.09;;;-0.85;87.83
78223;BME280;67497;53.058;21.618;2024-01-30T01:03:31;102100.09;;;-0.85;88.35
78223;BME280;67497;53.058;21.618;2024-01-30T01:05:32;102108.81;;;-0.75;88.31
78223;BME280;67497;53.058;21.618;2024-01-30T01:07:32;102100.66;;;-0.72;87.97
78223;BME280;67497;53.058;21.618;2024-01-30T01:09:32;102081.00;;;-0.76;87.79
78223;BME280;67497;53.058;21.618;2024-01-30T01:11:33;102096.94;;;-0.67;87.61
78223;BME280;67497;53.058;21.618;2024-01-30T01:13:33;102098.78;;;-0.69;87.79
78223;BME280;67497;53.058;21.618;2024-01-30T01:15:33;102087.25;;;-0.74;87.48
78223;BME280;67497;53.058;21.618;2024-01-30T01:17:34;102095.19;;;-0.69;87.39
78223;BME280;67497;53.058;21.618;2024-01-30T01:19:34;102097.97;;;-0.72;87.65
78223;BME280;67497;53.058;21.618;2024-01-30T01:21:34;102102.44;;;-0.71;86.56
78223;BME280;67497;53.058;21.618;2024-01-30T01:23:35;102092.75;;;-0.78;87.17
78223;BME280;67497;53.058;21.618;2024-01-30T01:25:36;102094.66;;;-0.82;87.06
78223;BME280;67497;53.058;21.618;2024-01-30T01:27:37;102101.69;;;-0.78;87.24
78223;BME280;67497;53.058;21.618;2024-01-30T01:29:41;102094.47;;;-0.76;87.35
78223;BME280;67497;53.058;21.618;2024-01-30T01:31:41;102098.38;;;-0.87;86.88
78223;BME280;67497;53.058;21.618;2024-01-30T01:33:46;102098.31;;;-0.86;87.07
78223;BME280;67497;53.058;21.618;2024-01-30T01:35:46;102086.09;;;-0.99;86.95
78223;BME280;67497;53.058;21.618;2024-01-30T01:37:46;102085.25;;;-1.01;87.04
78223;BME280;67497;53.058;21.618;2024-01-30T01:39:47;102071.19;;;-1.12;87.63
78223;BME280;67497;53.058;21.618;2024-01-30T01:41:48;102064.16;;;-1.17;87.15
78223;BME280;67497;53.058;21.618;2024-01-30T01:43:48;102066.88;;;-1.19;87.17
78223;BME280;67497;53.058;21.618;2024-01-30T01:45:48;102067.97;;;-1.28;87.60
78223;BME280;67497;53.058;21.618;2024-01-30T01:47:52;102075.94;;;-1.23;87.61
78223;BME280;67497;53.058;21.618;2024-01-30T01:49:52;102072.34;;;-1.22;88.53
78223;BME280;67497;53.058;21.618;2024-01-30T01:51:55;102072.34;;;-1.22;87.98
78223;BME280;67497;53.058;21.618;2024-01-30T01:53:57;102059.84;;;-1.25;88.13
78223;BME280;67497;53.058;21.618;2024-01-30T01:55:59;102060.56;;;-1.16;88.56
78223;BME280;67497;53.058;21.618;2024-01-30T01:58:00;102065.94;;;-1.16;88.24
78223;BME280;67497;53.058;21.618;2024-01-30T02:00:01;102069.25;;;-1.07;88.93
78223;BME280;67497;53.058;21.618;2024-01-30T02:02:03;102058.34;;;-1.01;88.20
78223;BME280;67497;53.058;21.618;2024-01-30T02:04:04;102053.81;;;-0.99;88.53
78223;BME280;67497;53.058;21.618;2024-01-30T02:06:05;102069.00;;;-0.96;88.14
78223;BME280;67497;53.058;21.618;2024-01-30T02:08:06;102071.75;;;-0.98;88.64
78223;BME280;67497;53.058;21.618;2024-01-30T02:10:08;102070.69;;;-0.92;88.08
78223;BME280;67497;53.058;21.618;2024-01-30T02:12:09;102067.06;;;-0.90;87.97
78223;BME280;67497;53.058;21.618;2024-01-30T02:14:09;102065.28;;;-0.91;88.04
78223;BME280;67497;53.058;21.618;2024-01-30T02:16:10;102071.34;;;-0.83;87.87
78223;BME280;67497;53.058;21.618;2024-01-30T02:18:10;102068.53;;;-0.78;87.38
78223;BME280;67497;53.058;21.618;2024-01-30T02:20:11;102078.16;;;-0.70;87.38
78223;BME280;67497;53.058;21.618;2024-01-30T02:22:11;102072.00;;;-0.73;87.21
78223;BME280;67497;53.058;21.618;2024-01-30T02:24:12;102075.47;;;-0.70;87.21
78223;BME280;67497;53.058;21.618;2024-01-30T02:26:13;102069.25;;;-0.72;87.20
78223;BME280;67497;53.058;21.618;2024-01-30T02:28:13;102074.50;;;-0.67;87.28
78223;BME280;67497;53.058;21.618;2024-01-30T02:30:14;102062.97;;;-0.71;87.70
78223;BME280;67497;53.058;21.618;2024-01-30T02:32:14;102074.50;;;-0.66;87.66
78223;BME280;67497;53.058;21.618;2024-01-30T02:34:14;102073.56;;;-0.65;87.57
78223;BME280;67497;53.058;21.618;2024-01-30T02:36:15;102076.22;;;-0.63;87.10
78223;BME280;67497;53.058;21.618;2024-01-30T02:38:16;102083.25;;;-0.57;87.20
78223;BME280;67497;53.058;21.618;2024-01-30T02:40:16;102082.31;;;-0.56;86.96
78223;BME280;67497;53.058;21.618;2024-01-30T02:42:17;102078.03;;;-0.64;86.38
78223;BME280;67497;53.058;21.618;2024-01-30T02:44:17;102079.13;;;-0.72;86.12
78223;BME280;67497;53.058;21.618;2024-01-30T02:46:18;102072.19;;;-0.81;86.49
78223;BME280;67497;53.058;21.618;2024-01-30T02:48:18;102068.88;;;-0.92;86.56
78223;BME280;67497;53.058;21.618;2024-01-30T02:50:19;102068.38;;;-1.07;86.91
78223;BME280;67497;53.058;21.618;2024-01-30T02:52:19;102066.75;;;-1.14;86.77
78223;BME280;67497;53.058;21.618;2024-01-30T02:54:20;102064.91;;;-1.12;87.07
78223;BME280;67497;53.058;21.618;2024-01-30T02:56:20;102057.88;;;-1.18;86.34
78223;BME280;67497;53.058;21.618;2024-01-30T02:58:21;102055.44;;;-1.29;85.68
78223;BME280;67497;53.058;21.618;2024-01-30T03:00:21;102062.63;;;-1.29;86.05
78223;BME280;67497;53.058;21.618;2024-01-30T03:02:21;102063.91;;;-1.45;85.76
78223;BME280;67497;53.058;21.618;2024-01-30T03:04:22;102058.63;;;-1.50;86.36
78223;BME280;67497;53.058;21.618;2024-01-30T03:06:22;102058.63;;;-1.50;86.53
78223;BME280;67497;53.058;21.618;2024-01-30T03:08:23;102041.13;;;-1.67;87.11
78223;BME280;67497;53.058;21.618;2024-01-30T03:10:23;102062.47;;;-1.61;87.15
78223;BME280;67497;53.058;21.618;2024-01-30T03:12:24;102058.88;;;-1.60;87.39
78223;BME280;67497;53.058;21.618;2024-01-30T03:14:24;102054.41;;;-1.61;87.65
78223;BME280;67497;53.058;21.618;2024-01-30T03:16:24;102055.34;;;-1.62;87.97
78223;BME280;67497;53.058;21.618;2024-01-30T03:18:25;102056.13;;;-1.57;88.39
78223;BME280;67497;53.058;21.618;2024-01-30T03:20:25;102057.56;;;-1.43;88.35
78223;BME280;67497;53.058;21.618;2024-01-30T03:22:25;102050.19;;;-1.33;88.45
78223;BME280;67497;53.058;21.618;2024-01-30T03:24:26;102052.88;;;-1.33;87.55
78223;BME280;67497;53.058;21.618;2024-01-30T03:26:26;102054.63;;;-1.32;87.50
78223;BME280;67497;53.058;21.618;2024-01-30T03:28:26;102039.63;;;-1.41;87.30
78223;BME280;67497;53.058;21.618;2024-01-30T03:30:27;102039.72;;;-1.45;87.82
78223;BME280;67497;53.058;21.618;2024-01-30T03:32:27;102045.94;;;-1.43;87.74
78223;BME280;67497;53.058;21.618;2024-01-30T03:34:27;102034.47;;;-1.50;87.86
78223;BME280;67497;53.058;21.618;2024-01-30T03:36:28;102026.59;;;-1.57;87.59
78223;BME280;67497;53.058;21.618;2024-01-30T03:38:28;102030.06;;;-1.54;88.08
78223;BME280;67497;53.058;21.618;2024-01-30T03:40:29;102023.81;;;-1.54;88.16
78223;BME280;67497;53.058;21.618;2024-01-30T03:42:29;102024.53;;;-1.48;88.18
78223;BME280;67497;53.058;21.618;2024-01-30T03:44:29;102025.38;;;-1.44;87.83
78223;BME280;67497;53.058;21.618;2024-01-30T03:46:30;102030.56;;;-1.37;88.24
78223;BME280;67497;53.058;21.618;2024-01-30T03:48:30;102022.44;;;-1.34;88.49
78223;BME280;67497;53.058;21.618;2024-01-30T03:50:31;102018.91;;;-1.37;86.73
78223;BME280;67497;53.058;21.618;2024-01-30T03:52:31;102020.75;;;-1.39;87.77
78223;BME280;67497;53.058;21.618;2024-01-30T03:54:31;102014.31;;;-1.32;87.93
78223;BME280;67497;53.058;21.618;2024-01-30T03:56:32;102010.84;;;-1.36;87.22
78223;BME280;67497;53.058;21.618;2024-01-30T03:58:32;102017.16;;;-1.38;87.44
78223;BME280;67497;53.058;21.618;2024-01-30T04:00:32;102013.53;;;-1.37;87.90
78223;BME280;67497;53.058;21.618;2024-01-30T04:02:33;102021.59;;;-1.36;87.74
78223;BME280;67497;53.058;21.618;2024-01-30T04:04:33;102023.31;;;-1.33;88.54
78223;BME280;67497;53.058;21.618;2024-01-30T04:06:33;102032.16;;;-1.28;88.72
78223;BME280;67497;53.058;21.618;2024-01-30T04:08:34;102034.75;;;-1.25;88.64
78223;BME280;67497;53.058;21.618;2024-01-30T04:10:34;102022.94;;;-1.18;88.14
78223;BME280;67497;53.058;21.618;2024-01-30T04:12:35;102034.38;;;-1.10;88.20
78223;BME280;67497;53.058;21.618;2024-01-30T04:14:38;102036.00;;;-1.03;88.36
78223;BME280;67497;53.058;21.618;2024-01-30T04:16:39;102017.06;;;-0.98;87.83
78223;BME280;67497;53.058;21.618;2024-01-30T04:18:39;102027.59;;;-0.89;87.25
78223;BME280;67497;53.058;21.618;2024-01-30T04:20:40;102031.00;;;-0.83;86.94
78223;BME280;67497;53.058;21.618;2024-01-30T04:22:41;102030.09;;;-0.83;86.06
78223;BME280;67497;53.058;21.618;2024-01-30T04:24:42;102027.41;;;-0.83;86.40
78223;BME280;67497;53.058;21.618;2024-01-30T04:26:42;102025.75;;;-0.87;86.03
78223;BME280;67497;53.058;21.618;2024-01-30T04:28:45;102021.63;;;-1.02;85.53
78223;BME280;67497;53.058;21.618;2024-01-30T04:30:46;102027.81;;;-0.98;86.37
78223;BME280;67497;53.058;21.618;2024-01-30T04:32:46;102028.63;;;-0.95;86.80
78223;BME280;67497;53.058;21.618;2024-01-30T04:34:46;102022.63;;;-1.06;85.74
78223;BME280;67497;53.058;21.618;2024-01-30T04:36:47;102022.63;;;-1.06;86.81
78223;BME280;67497;53.058;21.618;2024-01-30T04:38:47;102014.66;;;-1.10;86.24
78223;BME280;67497;53.058;21.618;2024-01-30T04:40:48;102019.94;;;-1.06;87.19
78223;BME280;67497;53.058;21.618;2024-01-30T04:42:48;102031.47;;;-1.01;86.76
78223;BME280;67497;53.058;21.618;2024-01-30T04:44:49;102023.41;;;-1.01;86.34
78223;BME280;67497;53.058;21.618;2024-01-30T04:46:49;102021.34;;;-0.91;86.80
78223;BME280;67497;53.058;21.618;2024-01-30T04:48:50;102019.53;;;-0.91;86.46
78223;BME280;67497;53.058;21.618;2024-01-30T04:50:50;102027.59;;;-0.89;86.28
78223;BME280;67497;53.058;21.618;2024-01-30T04:52:50;102015.00;;;-0.89;85.99
78223;BME280;67497;53.058;21.618;2024-01-30T04:54:51;102021.19;;;-0.85;86.27
78223;BME280;67497;53.058;21.618;2024-01-30T04:56:51;102015.88;;;-0.87;86.61
78223;BME280;67497;53.058;21.618;2024-01-30T04:58:52;102015.94;;;-0.90;86.24
78223;BME280;67497;53.058;21.618;2024-01-30T05:00:52;102014.25;;;-0.94;85.80
78223;BME280;67497;53.058;21.618;2024-01-30T05:02:55;102014.16;;;-0.91;86.50
78223;BME280;67497;53.058;21.618;2024-01-30T05:04:55;102019.38;;;-0.85;86.64
78223;BME280;67497;53.058;21.618;2024-01-30T05:06:56;102015.66;;;-0.79;86.27
78223;BME280;67497;53.058;21.618;2024-01-30T05:08:56;102020.00;;;-0.74;86.82
78223;BME280;67497;53.058;21.618;2024-01-30T05:11:00;102008.13;;;-0.67;86.00
78223;BME280;67497;53.058;21.618;2024-01-30T05:13:00;102009.03;;;-0.66;86.31
78223;BME280;67497;53.058;21.618;2024-01-30T05:15:01;102015.16;;;-0.61;86.19
78223;BME280;67497;53.058;21.618;2024-01-30T05:17:01;102013.34;;;-0.61;85.70
78223;BME280;67497;53.058;21.618;2024-01-30T05:19:03;102017.91;;;-0.63;85.76
78223;BME280;67497;53.058;21.618;2024-01-30T05:21:03;102011.75;;;-0.68;85.64
78223;BME280;67497;53.058;21.618;2024-01-30T05:23:04;102024.03;;;-0.57;85.53
78223;BME280;67497;53.058;21.618;2024-01-30T05:25:05;102021.44;;;-0.61;85.46
78223;BME280;67497;53.058;21.618;2024-01-30T05:27:05;102020.53;;;-0.59;85.47
78223;BME280;67497;53.058;21.618;2024-01-30T05:29:06;101999.97;;;-0.64;85.29
78223;BME280;67497;53.058;21.618;2024-01-30T05:31:06;102014.19;;;-0.58;85.38
78223;BME280;67497;53.058;21.618;2024-01-30T05:33:07;102007.91;;;-0.57;86.04
78223;BME280;67497;53.058;21.618;2024-01-30T05:35:07;102005.22;;;-0.57;85.53
78223;BME280;67497;53.058;21.618;2024-01-30T05:37:10;102014.34;;;-0.65;85.10
78223;BME280;67497;53.058;21.618;2024-01-30T05:39:14;102000.97;;;-0.68;85.53
78223;BME280;67497;53.058;21.618;2024-01-30T05:41:14;102015.16;;;-0.61;85.50
78223;BME280;67497;53.058;21.618;2024-01-30T05:43:15;102010.81;;;-0.67;85.34
78223;BME280;67497;53.058;21.618;2024-01-30T05:45:15;102008.19;;;-0.68;85.36
78223;BME280;67497;53.058;21.618;2024-01-30T05:47:16;101993.94;;;-0.72;85.22
78223;BME280;67497;53.058;21.618;2024-01-30T05:49:16;102009.09;;;-0.69;85.08
78223;BME280;67497;53.058;21.618;2024-01-30T05:51:16;101999.38;;;-0.75;85.80
78223;BME280;67497;53.058;21.618;2024-01-30T05:53:17;102003.00;;;-0.76;85.87
78223;BME280;67497;53.058;21.618;2024-01-30T05:55:17;101994.16;;;-0.81;85.42
78223;BME280;67497;53.058;21.618;2024-01-30T05:57:17;102005.88;;;-0.83;86.04
78223;BME280;67497;53.058;21.618;2024-01-30T05:59:18;102010.19;;;-0.76;85.88
78223;BME280;67497;53.058;21.618;2024-01-30T06:01:18;102006.69;;;-0.80;85.25
78223;BME280;67497;53.058;21.618;2024-01-30T06:03:18;102010.22;;;-0.78;85.78
78223;BME280;67497;53.058;21.618;2024-01-30T06:05:19;102011.06;;;-0.76;85.41
78223;BME280;67497;53.058;21.618;2024-01-30T06:07:19;102002.88;;;-0.71;85.33
78223;BME280;67497;53.058;21.618;2024-01-30T06:09:20;102005.66;;;-0.74;85.48
78223;BME280;67497;53.058;21.618;2024-01-30T06:11:20;101992.34;;;-0.79;85.46
78223;BME280;67497;53.058;21.618;2024-01-30T06:13:20;101992.34;;;-0.79;85.98
78223;BME280;67497;53.058;21.618;2024-01-30T06:15:21;101999.31;;;-0.72;85.92
78223;BME280;67497;53.058;21.618;2024-01-30T06:17:21;101996.31;;;-0.61;85.33
78223;BME280;67497;53.058;21.618;2024-01-30T06:19:21;102004.38;;;-0.59;85.29
78223;BME280;67497;53.058;21.618;2024-01-30T06:21:23;102010.59;;;-0.57;85.00
78223;BME280;67497;53.058;21.618;2024-01-30T06:23:24;102012.34;;;-0.56;85.20
78223;BME280;67497;53.058;21.618;2024-01-30T06:25:24;101999.94;;;-0.62;85.30
78223;BME280;67497;53.058;21.618;2024-01-30T06:27:24;102009.84;;;-0.63;85.26
78223;BME280;67497;53.058;21.618;2024-01-30T06:29:26;102014.94;;;-0.53;85.35
78223;BME280;67497;53.058;21.618;2024-01-30T06:31:26;102009.53;;;-0.52;85.02
78223;BME280;67497;53.058;21.618;2024-01-30T06:33:27;102012.94;;;-0.45;84.86
78223;BME280;67497;53.058;21.618;2024-01-30T06:35:27;102018.16;;;-0.39;85.21
78223;BME280;67497;53.058;21.618;2024-01-30T06:37:29;102020.78;;;-0.38;84.55
78223;BME280;67497;53.058;21.618;2024-01-30T06:39:29;102008.28;;;-0.39;84.46
78223;BME280;67497;53.058;21.618;2024-01-30T06:41:30;102014.53;;;-0.38;84.81
78223;BME280;67497;53.058;21.618;2024-01-30T06:43:30;102008.13;;;-0.34;84.83
78223;BME280;67497;53.058;21.618;2024-01-30T06:45:30;102008.88;;;-0.29;84.34
78223;BME280;67497;53.058;21.618;2024-01-30T06:47:31;102006.25;;;-0.31;84.47
78223;BME280;67497;53.058;21.618;2024-01-30T06:49:32;102002.81;;;-0.37;84.81
78223;BME280;67497;53.058;21.618;2024-01-30T06:51:32;102005.28;;;-0.28;84.15
78223;BME280;67497;53.058;21.618;2024-01-30T06:53:32;102005.00;;;-0.19;84.35
78223;BME280;67497;53.058;21.618;2024-01-30T06:55:33;102002.97;;;-0.11;83.81
78223;BME280;67497;53.058;21.618;2024-01-30T06:57:33;102013.69;;;-0.10;83.87
78223;BME280;67497;53.058;21.618;2024-01-30T06:59:34;102019.75;;;-0.02;83.46
78223;BME280;67497;53.058;21.618;2024-01-30T07:01:34;102016.97;;;0.02;83.21
78223;BME280;67497;53.058;21.618;2024-01-30T07:03:35;102022.91;;;0.13;82.83
78223;BME280;67497;53.058;21.618;2024-01-30T07:05:35;102033.47;;;0.20;82.42
78223;BME280;67497;53.058;21.618;2024-01-30T07:07:35;102022.16;;;0.37;82.01
78223;BME280;67497;53.058;21.618;2024-01-30T07:09:36;102023.94;;;0.66;81.12
78223;BME280;67497;53.058;21.618;2024-01-30T07:11:36;102023.63;;;1.02;80.17
78223;BME280;67497;53.058;21.618;2024-01-30T07:13:36;102033.53;;;1.28;77.93
78223;BME280;67497;53.058;21.618;2024-01-30T07:15:37;102023.47;;;1.07;78.11
78223;BME280;67497;53.058;21.618;2024-01-30T07:17:38;102020.47;;;1.16;78.10
78223;BME280;67497;53.058;21.618;2024-01-30T07:19:38;102027.50;;;1.20;78.34
78223;BME280;67497;53.058;21.618;2024-01-30T07:21:38;102024.78;;;1.22;78.68
78223;BME280;67497;53.058;21.618;2024-01-30T07:23:40;102025.53;;;1.25;77.81
78223;BME280;67497;53.058;21.618;2024-01-30T07:25:42;102031.13;;;1.19;78.02
78223;BME280;67497;53.058;21.618;2024-01-30T07:27:42;102020.59;;;1.11;78.14
78223;BME280;67497;53.058;21.618;2024-01-30T07:29:43;102042.06;;;1.16;78.74
78223;BME280;67497;53.058;21.618;2024-01-30T07:31:43;102032.44;;;1.34;77.85
78223;BME280;67497;53.058;21.618;2024-01-30T07:33:43;102026.88;;;1.38;76.96
78223;BME280;67497;53.058;21.618;2024-01-30T07:35:45;102036.66;;;1.41;77.20
78223;BME280;67497;53.058;21.618;2024-01-30T07:37:45;102013.22;;;1.43;76.92
78223;BME280;67497;53.058;21.618;2024-01-30T07:39:46;102021.47;;;1.38;76.43
78223;BME280;67497;53.058;21.618;2024-01-30T07:41:47;102027.22;;;1.54;77.06
78223;BME280;67497;53.058;21.618;2024-01-30T07:43:47;102016.28;;;1.81;75.83
78223;BME280;67497;53.058;21.618;2024-01-30T07:45:48;101999.84;;;1.88;75.83
78223;BME280;67497;53.058;21.618;2024-01-30T07:47:49;102014.66;;;2.01;75.80
78223;BME280;67497;53.058;21.618;2024-01-30T07:49:49;102005.28;;;2.11;74.92
78223;BME280;67497;53.058;21.618;2024-01-30T07:51:50;101997.03;;;2.14;73.77
78223;BME280;67497;53.058;21.618;2024-01-30T07:53:50;102004.59;;;2.27;73.69
78223;BME280;67497;53.058;21.618;2024-01-30T07:55:52;102003.94;;;2.44;73.88
78223;BME280;67497;53.058;21.618;2024-01-30T07:57:52;102001.00;;;2.50;73.40
78223;BME280;67497;53.058;21.618;2024-01-30T07:59:53;102007.69;;;2.63;72.51
78223;BME280;67497;53.058;21.618;2024-01-30T08:01:53;102006.69;;;2.87;72.05
78223;BME280;67497;53.058;21.618;2024-01-30T08:03:54;101994.53;;;2.97;71.25
78223;BME280;67497;53.058;21.618;2024-01-30T08:05:54;102001.50;;;2.81;71.20
78223;BME280;67497;53.058;21.618;2024-01-30T08:07:55;102003.66;;;2.73;72.25
78223;BME280;67497;53.058;21.618;2024-01-30T08:09:55;101987.19;;;2.79;71.58
78223;BME280;67497;53.058;21.618;2024-01-30T08:11:56;102000.38;;;2.65;71.11
78223;BME280;67497;53.058;21.618;2024-01-30T08:13:56;101999.91;;;2.77;71.24
78223;BME280;67497;53.058;21.618;2024-01-30T08:15:56;102006.00;;;2.82;70.73
78223;BME280;67497;53.058;21.618;2024-01-30T08:17:57;102008.94;;;2.76;71.64
78223;BME280;67497;53.058;21.618;2024-01-30T08:19:58;102008.13;;;2.74;70.91
78223;BME280;67497;53.058;21.618;2024-01-30T08:21:59;101996.81;;;2.86;70.73
78223;BME280;67497;53.058;21.618;2024-01-30T08:23:59;102005.44;;;2.74;72.05
78223;BME280;67497;53.058;21.618;2024-01-30T08:26:00;101994.81;;;2.70;71.58
78223;BME280;67497;53.058;21.618;2024-01-30T08:28:00;102006.25;;;2.76;71.46
78223;BME280;67497;53.058;21.618;2024-01-30T08:30:02;101992.72;;;2.76;71.01
78223;BME280;67497;53.058;21.618;2024-01-30T08:32:04;101994.25;;;2.83;71.38
78223;BME280;67497;53.058;21.618;2024-01-30T08:34:05;101992.59;;;2.79;70.88
78223;BME280;67497;53.058;21.618;2024-01-30T08:36:05;102008.94;;;2.76;70.90
78223;BME280;67497;53.058;21.618;2024-01-30T08:38:06;102000.25;;;2.68;71.09
78223;BME280;67497;53.058;21.618;2024-01-30T08:40:07;102001.78;;;2.75;72.17
78223;BME280;67497;53.058;21.618;2024-01-30T08:42:08;102012.91;;;2.68;70.87
78223;BME280;67497;53.058;21.618;2024-01-30T08:44:08;102011.09;;;2.68;72.75
78223;BME280;67497;53.058;21.618;2024-01-30T08:46:11;101998.53;;;2.67;71.67
78223;BME280;67497;53.058;21.618;2024-01-30T08:48:12;102010.47;;;2.83;71.67
78223;BME280;67497;53.058;21.618;2024-01-30T08:50:12;102008.81;;;3.01;71.69
78223;BME280;67497;53.058;21.618;2024-01-30T08:52:13;102004.16;;;3.05;71.16
78223;BME280;67497;53.058;21.618;2024-01-30T08:54:13;102005.91;;;3.06;71.51
78223;BME280;67497;53.058;21.618;2024-01-30T08:56:13;102001.47;;;3.25;70.82
78223;BME280;67497;53.058;21.618;2024-01-30T08:58:14;102002.91;;;3.33;70.89
78223;BME280;67497;53.058;21.618;2024-01-30T09:00:15;101987.34;;;3.18;69.55
78223;BME280;67497;53.058;21.618;2024-01-30T09:02:16;102005.16;;;3.24;70.55
78223;BME280;67497;53.058;21.618;2024-01-30T09:04:18;101999.47;;;3.30;70.07
78223;BME280;67497;53.058;21.618;2024-01-30T09:06:18;102006.38;;;3.37;70.37
78223;BME280;67497;53.058;21.618;2024-01-30T09:08:18;102007.47;;;3.53;69.50
78223;BME280;67497;53.058;21.618;2024-01-30T09:10:19;102005.03;;;3.67;68.67
78223;BME280;67497;53.058;21.618;2024-01-30T09:12:20;101993.09;;;3.71;69.53
78223;BME280;67497;53.058;21.618;2024-01-30T09:14:20;101991.81;;;3.80;69.22
78223;BME280;67497;53.058;21.618;2024-01-30T09:16:21;101991.13;;;3.75;68.59
78223;BME280;67497;53.058;21.618;2024-01-30T09:18:21;101987.81;;;3.68;67.44
78223;BME280;67497;53.058;21.618;2024-01-30T09:20:22;101974.81;;;3.56;68.04
78223;BME280;67497;53.058;21.618;2024-01-30T09:22:23;101977.66;;;3.53;68.44
78223;BME280;67497;53.058;21.618;2024-01-30T09:24:23;101980.78;;;3.44;68.11
78223;BME280;67497;53.058;21.618;2024-01-30T09:26:24;101982.38;;;3.28;69.28
78223;BME280;67497;53.058;21.618;2024-01-30T09:28:24;101985.22;;;3.25;68.44
78223;BME280;67497;53.058;21.618;2024-01-30T09:30:24;101980.56;;;3.28;69.36
78223;BME280;67497;53.058;21.618;2024-01-30T09:32:25;101979.00;;;3.23;69.19
78223;BME280;67497;53.058;21.618;2024-01-30T09:34:25;101974.53;;;3.22;69.62
78223;BME280;67497;53.058;21.618;2024-01-30T09:36:26;101960.97;;;3.22;68.51
78223;BME280;67497;53.058;21.618;2024-01-30T09:38:26;101963.94;;;3.37;68.16
78223;BME280;67497;53.058;21.618;2024-01-30T09:40:26;101953.63;;;3.45;68.58
78223;BME280;67497;53.058;21.618;2024-01-30T09:42:35;101969.41;;;3.56;67.42
78223;BME280;67497;53.058;21.618;2024-01-30T09:44:38;101966.28;;;3.45;68.20
78223;BME280;67497;53.058;21.618;2024-01-30T09:46:44;101959.97;;;3.44;67.70
78223;BME280;67497;53.058;21.618;2024-01-30T09:48:47;101954.03;;;3.56;67.61
78223;BME280;67497;53.058;21.618;2024-01-30T09:50:48;101955.50;;;3.63;67.02
78223;BME280;67497;53.058;21.618;2024-01-30T09:52:49;101947.59;;;3.59;67.50
78223;BME280;67497;53.058;21.618;2024-01-30T09:54:51;101946.19;;;3.50;67.93
78223;BME280;67497;53.058;21.618;2024-01-30T09:56:52;101953.59;;;3.66;67.62
78223;BME280;67497;53.058;21.618;2024-01-30T09:58:53;101961.41;;;3.53;67.60
78223;BME280;67497;53.058;21.618;2024-01-30T10:00:53;101940.22;;;3.42;67.81
78223;BME280;67497;53.058;21.618;2024-01-30T10:02:54;101946.91;;;3.34;67.61
78223;BME280;67497;53.058;21.618;2024-01-30T10:04:54;101946.13;;;3.32;68.28
78223;BME280;67497;53.058;21.618;2024-01-30T10:06:54;101931.16;;;3.23;67.69
78223;BME280;67497;53.058;21.618;2024-01-30T10:08:55;101964.25;;;3.50;67.53
78223;BME280;67497;53.058;21.618;2024-01-30T10:10:55;101956.25;;;3.67;67.23
78223;BME280;67497;53.058;21.618;2024-01-30T10:12:56;101955.94;;;3.73;66.58
78223;BME280;67497;53.058;21.618;2024-01-30T10:14:56;101956.66;;;3.78;66.98
78223;BME280;67497;53.058;21.618;2024-01-30T10:16:58;101955.56;;;4.01;66.22
78223;BME280;67497;53.058;21.618;2024-01-30T10:18:58;101938.72;;;4.13;65.37
78223;BME280;67497;53.058;21.618;2024-01-30T10:20:59;101955.03;;;4.49;65.16
78223;BME280;67497;53.058;21.618;2024-01-30T10:22:59;101962.69;;;4.59;63.94
78223;BME280;67497;53.058;21.618;2024-01-30T10:25:00;101952.19;;;4.52;64.44